0F2

Bowie Municipal Airport

Bowie, Texas, USA
METAR K0F2 260315Z AUTO 00000KT 10SM CLR 07/06 A3012 RMK AO2 T00720062
Observed Flight Rules
Apr-26 @ 03:15 UTC (9 minutes ago) Visual Flight Rules
Visibility Clouds
10 miles
  • Clear skies
Temperatures Readings
Current 7°C / 45°F
Dewpoint 6°C / 43°F
Humidity 93%
Altimeter 30.12" Hg
Pressure 1020 hPa
Elevation 336
METAR K0F2 260315Z AUTO 00000KT 10SM CLR 07/06 A3012 RMK AO2 T00720062
Observed Flight Rules
Apr-26 @ 03:15 UTC
(9 minutes ago)
VFR
Clouds
  • Clear skies
Temperature Dewpoint
7°C / 45°F 6°C / 43°F
Humidity Altimeter Pressure
93% 30.12" Hg 1020 hPa